Time;durP1;ratioP1;P1;durP2;ratioP2;P2;SDS_P1;SDS_P2;PMS_P1;PMS_P2;Temp;Humidity;BMP_temperature;BMP_pressure;BME280_temperature;BME280_humidity;BME280_pressure;Samples;Min_cycle;Max_cycle;Signal;HPM_P1;HPM_P2
2022/09/05 00:01:25;;;;;;;3.15;1.63;;;;;;;;;;5028921;28;20030;-85
2022/09/05 00:04:20;;;;;;;5.55;2.13;;;;;;;;;;5007347;28;20044;-85
2022/09/05 00:07:36;;;;;;;3.08;1.80;;;;;;;;;;5024305;28;20474;-85
2022/09/05 00:10:54;;;;;;;5.90;1.77;;;;;;;;;;4966379;28;20130;-85
2022/09/05 00:13:48;;;;;;;4.90;1.92;;;;;;;;;;4902958;29;20056;-85
2022/09/05 00:16:23;;;;;;;4.10;1.92;;;;;;;;;;4881458;29;20052;-85
2022/09/05 00:19:05;;;;;;;3.53;1.58;;;;;;;;;;4903060;29;20056;-85
2022/09/05 00:22:03;;;;;;;4.57;2.00;;;;;;;;;;4893366;29;20421;-85
2022/09/05 00:25:39;;;;;;;4.07;1.75;;;;;;;;;;4900320;29;20056;-85
2022/09/05 00:28:22;;;;;;;5.88;2.08;;;;;;;;;;4900045;29;20052;-85
2022/09/05 00:31:25;;;;;;;6.93;2.33;;;;;;;;;;4892913;29;20082;-85
2022/09/05 00:34:36;;;;;;;4.43;1.80;;;;;;;;;;4899706;29;20052;-85
2022/09/05 00:37:46;;;;;;;4.40;1.73;;;;;;;;;;4888883;29;20088;-85
2022/09/05 00:40:34;;;;;;;3.75;2.05;;;;;;;;;;4878324;29;20076;-92
2022/09/05 00:43:12;;;;;;;6.82;2.40;;;;;;;;;;4865103;29;20041;-92
2022/09/05 00:45:50;;;;;;;5.18;1.95;;;;;;;;;;4849870;29;20052;-93
2022/09/05 00:48:49;;;;;;;5.90;2.25;;;;;;;;;;4830276;29;20076;-85
2022/09/05 00:51:37;;;;;;;3.33;1.83;;;;;;;;;;4933239;29;20059;-83
2022/09/05 00:54:19;;;;;;;6.40;1.75;;;;;;;;;;4932965;29;20047;-85
2022/09/05 00:57:35;;;;;;;4.40;2.03;;;;;;;;;;4922422;29;20058;-85
2022/09/05 01:00:32;;;;;;;3.47;1.70;;;;;;;;;;4948763;29;20039;-85
2022/09/05 01:03:25;;;;;;;5.00;3.00;;;;;;;;;;4930312;29;20054;-85
2022/09/05 01:06:30;;;;;;;6.82;2.05;;;;;;;;;;4933110;29;20058;-85
2022/09/05 01:09:10;;;;;;;3.60;2.00;;;;;;;;;;4930882;29;20067;-93
2022/09/05 01:12:05;;;;;;;3.80;1.90;;;;;;;;;;4933230;29;20100;-93
2022/09/05 01:14:48;;;;;;;3.85;2.00;;;;;;;;;;4904564;29;20063;-92
2022/09/05 01:17:34;;;;;;;3.20;1.90;;;;;;;;;;4964836;28;20952;-93
2022/09/05 01:20:10;;;;;;;3.95;2.00;;;;;;;;;;4976985;28;20141;-85
2022/09/05 01:23:03;;;;;;;5.88;1.90;;;;;;;;;;4990594;28;20037;-85
2022/09/05 01:26:10;;;;;;;3.67;1.85;;;;;;;;;;5002931;28;20100;-85
2022/09/05 01:29:05;;;;;;;4.03;2.05;;;;;;;;;;4991959;28;20536;-92
2022/09/05 01:31:57;;;;;;;3.90;1.90;;;;;;;;;;4992948;28;20100;-93
2022/09/05 01:34:49;;;;;;;5.57;1.88;;;;;;;;;;4969675;28;20045;-92
2022/09/05 01:37:25;;;;;;;4.13;2.05;;;;;;;;;;4987041;28;20577;-92
2022/09/05 01:40:19;;;;;;;7.20;2.33;;;;;;;;;;4986587;28;20175;-85
2022/09/05 01:43:22;;;;;;;3.67;2.13;;;;;;;;;;5002381;28;20201;-85
2022/09/05 01:46:29;;;;;;;4.25;1.95;;;;;;;;;;5002898;28;20420;-85
2022/09/05 01:49:33;;;;;;;7.07;2.20;;;;;;;;;;4992858;28;20045;-92
2022/09/05 01:52:26;;;;;;;4.75;2.20;;;;;;;;;;4975438;28;20042;-92
2022/09/05 01:55:14;;;;;;;3.50;1.92;;;;;;;;;;5007385;28;20046;-92
2022/09/05 01:58:36;;;;;;;5.72;1.90;;;;;;;;;;5013695;28;20039;-86
2022/09/05 02:01:45;;;;;;;3.80;2.13;;;;;;;;;;5019019;28;20029;-93
2022/09/05 02:04:48;;;;;;;3.53;1.85;;;;;;;;;;5000019;28;20498;-92
2022/09/05 02:08:15;;;;;;;4.03;2.15;;;;;;;;;;4941722;29;20206;-92
2022/09/05 02:11:09;;;;;;;4.85;2.13;;;;;;;;;;4938423;28;20130;-92
2022/09/05 02:13:47;;;;;;;4.25;2.20;;;;;;;;;;4932412;28;20666;-92
2022/09/05 02:16:31;;;;;;;5.80;2.17;;;;;;;;;;4920021;29;20523;-93
2022/09/05 02:19:09;;;;;;;4.18;2.28;;;;;;;;;;4943218;28;20066;-85
2022/09/05 02:22:06;;;;;;;3.65;2.05;;;;;;;;;;4944434;29;20035;-85
2022/09/05 02:25:07;;;;;;;5.72;2.30;;;;;;;;;;4942063;29;20093;-85
2022/09/05 02:28:12;;;;;;;5.70;2.60;;;;;;;;;;4929337;29;20043;-85
2022/09/05 02:31:19;;;;;;;4.25;2.47;;;;;;;;;;4948152;29;20051;-93
2022/09/05 02:33:56;;;;;;;5.20;2.20;;;;;;;;;;4901848;29;20150;-92
2022/09/05 02:37:38;;;;;;;4.05;2.50;;;;;;;;;;4934391;29;20059;-93
2022/09/05 02:40:45;;;;;;;5.10;2.30;;;;;;;;;;4860931;29;20070;-85
2022/09/05 02:43:44;;;;;;;4.43;2.30;;;;;;;;;;4860161;29;20059;-85
2022/09/05 02:46:45;;;;;;;4.63;2.35;;;;;;;;;;4926455;29;20126;-85
2022/09/05 02:49:25;;;;;;;6.00;2.78;;;;;;;;;;4931631;29;20052;-92
2022/09/05 02:52:15;;;;;;;3.65;2.15;;;;;;;;;;4906630;29;20055;-93
2022/09/05 02:55:17;;;;;;;5.35;2.65;;;;;;;;;;4916639;29;20039;-92
2022/09/05 02:58:20;;;;;;;4.97;2.00;;;;;;;;;;4915530;29;21024;-92
2022/09/05 03:01:03;;;;;;;4.13;2.13;;;;;;;;;;4915162;29;21044;-92
2022/09/05 03:04:20;;;;;;;8.00;2.28;;;;;;;;;;4920024;29;21038;-92
2022/09/05 03:07:08;;;;;;;4.82;2.17;;;;;;;;;;4916390;29;20056;-93
2022/09/05 03:09:49;;;;;;;4.60;2.60;;;;;;;;;;4922615;29;20070;-85
2022/09/05 03:13:03;;;;;;;5.38;2.33;;;;;;;;;;4924113;29;20035;-85
2022/09/05 03:16:01;;;;;;;4.95;2.40;;;;;;;;;;4917480;28;20051;-85
2022/09/05 03:19:16;;;;;;;5.57;2.47;;;;;;;;;;5021707;28;20052;-92
2022/09/05 03:22:23;;;;;;;7.47;2.72;;;;;;;;;;5004499;28;20478;-92
2022/09/05 03:25:25;;;;;;;5.32;2.67;;;;;;;;;;4977934;28;20050;-92
2022/09/05 03:28:51;;;;;;;4.95;2.60;;;;;;;;;;5014202;28;20551;-92
2022/09/05 03:32:47;;;;;;;4.35;2.30;;;;;;;;;;5024856;28;20497;-85
2022/09/05 03:36:08;;;;;;;6.43;2.50;;;;;;;;;;5023770;28;20525;-85
2022/09/05 03:38:35;;;;;;;4.85;2.45;;;;;;;;;;5003715;28;20053;-89
2022/09/05 03:42:01;;;;;;;5.07;2.38;;;;;;;;;;5007969;28;20042;-85
2022/09/05 03:44:52;;;;;;;5.30;2.88;;;;;;;;;;4931217;29;20091;-85
2022/09/05 03:48:08;;;;;;;5.28;2.58;;;;;;;;;;4916798;29;20468;-84
2022/09/05 03:51:29;;;;;;;5.20;2.63;;;;;;;;;;4903804;29;20074;-85
2022/09/05 03:54:46;;;;;;;4.57;2.85;;;;;;;;;;4906986;29;20144;-85
2022/09/05 03:58:35;;;;;;;4.85;2.50;;;;;;;;;;4924768;29;20055;-85
2022/09/05 04:01:34;;;;;;;5.50;2.88;;;;;;;;;;4916533;29;20052;-85
2022/09/05 04:04:21;;;;;;;6.97;2.95;;;;;;;;;;4907985;29;20125;-85
2022/09/05 04:07:18;;;;;;;8.30;3.17;;;;;;;;;;4916799;29;20079;-85
2022/09/05 04:10:19;;;;;;;6.90;2.67;;;;;;;;;;4897778;29;20052;-85
2022/09/05 04:12:50;;;;;;;4.15;2.38;;;;;;;;;;4910338;29;20046;-85
2022/09/05 04:15:28;;;;;;;5.40;3.00;;;;;;;;;;4970934;28;20506;-85
2022/09/05 04:17:59;;;;;;;4.95;2.70;;;;;;;;;;5022705;28;20069;-85
2022/09/05 04:20:42;;;;;;;5.47;2.70;;;;;;;;;;5021838;28;20077;-93
2022/09/05 04:24:07;;;;;;;4.90;2.70;;;;;;;;;;5005753;28;20120;-94
2022/09/05 04:27:19;;;;;;;5.13;2.80;;;;;;;;;;4946483;28;20107;-92
2022/09/05 04:30:03;;;;;;;6.22;2.75;;;;;;;;;;4933632;28;20099;-93
2022/09/05 04:39:27;;;;;;;5.95;2.95;;;;;;;;;;4962020;28;20047;-85
2022/09/05 04:42:05;;;;;;;5.53;2.65;;;;;;;;;;4963338;28;20681;-85
2022/09/05 04:44:46;;;;;;;7.20;2.72;;;;;;;;;;4953403;28;20504;-85
2022/09/05 04:47:21;;;;;;;5.00;3.00;;;;;;;;;;4960174;28;20505;-84
2022/09/05 04:50:07;;;;;;;4.72;2.60;;;;;;;;;;4961503;28;20099;-85
2022/09/05 04:53:14;;;;;;;5.20;2.83;;;;;;;;;;4947992;28;20044;-84
2022/09/05 04:55:46;;;;;;;7.68;2.85;;;;;;;;;;4869820;29;20064;-84
2022/09/05 04:58:52;;;;;;;5.88;2.97;;;;;;;;;;4855069;29;20061;-85
2022/09/05 05:01:52;;;;;;;5.35;2.92;;;;;;;;;;4857343;29;20110;-85
2022/09/05 05:05:21;;;;;;;6.65;2.88;;;;;;;;;;4937772;29;20051;-85
2022/09/05 05:08:21;;;;;;;6.28;2.88;;;;;;;;;;4915210;29;20130;-91
2022/09/05 05:11:16;;;;;;;7.82;2.70;;;;;;;;;;4919769;29;20043;-85
2022/09/05 05:14:11;;;;;;;6.18;2.92;;;;;;;;;;4918802;29;20112;-86
2022/09/05 05:17:07;;;;;;;5.28;2.72;;;;;;;;;;4923429;29;20044;-86
2022/09/05 05:20:14;;;;;;;6.03;2.78;;;;;;;;;;4927907;29;20059;-86
2022/09/05 05:23:08;;;;;;;10.45;3.10;;;;;;;;;;4922523;29;20107;-86
2022/09/05 05:25:50;;;;;;;6.72;3.20;;;;;;;;;;4939920;29;20055;-86
2022/09/05 05:28:29;;;;;;;6.10;3.00;;;;;;;;;;4932228;29;20485;-89
2022/09/05 05:31:33;;;;;;;5.30;2.72;;;;;;;;;;4913751;29;20058;-86
2022/09/05 05:34:14;;;;;;;5.03;2.83;;;;;;;;;;4948505;28;20047;-84
2022/09/05 05:36:59;;;;;;;7.22;4.05;;;;;;;;;;4936797;28;20078;-85
2022/09/05 05:40:09;;;;;;;4.93;2.63;;;;;;;;;;4936952;28;20037;-86
2022/09/05 05:42:39;;;;;;;5.55;3.28;;;;;;;;;;4932393;29;20117;-85
2022/09/05 05:45:19;;;;;;;5.60;3.20;;;;;;;;;;4934284;28;20067;-86
2022/09/05 05:47:54;;;;;;;6.50;3.10;;;;;;;;;;4933764;29;20117;-86
2022/09/05 05:51:02;;;;;;;5.68;3.03;;;;;;;;;;4950429;28;20067;-86
2022/09/05 05:54:18;;;;;;;6.32;3.42;;;;;;;;;;4935005;29;20115;-86
2022/09/05 05:57:15;;;;;;;6.85;3.10;;;;;;;;;;4906321;29;20078;-86
2022/09/05 06:00:27;;;;;;;5.60;3.47;;;;;;;;;;4910834;29;20044;-85
2022/09/05 06:03:23;;;;;;;12.45;2.88;;;;;;;;;;4892318;29;20726;-86
2022/09/05 06:06:40;;;;;;;4.43;2.90;;;;;;;;;;4915235;29;20086;-86
2022/09/05 06:09:40;;;;;;;6.10;3.05;;;;;;;;;;4878022;29;20522;-86
2022/09/05 06:13:04;;;;;;;7.32;3.20;;;;;;;;;;4930696;29;20083;-85
2022/09/05 06:16:12;;;;;;;5.90;3.38;;;;;;;;;;4917756;29;20080;-86
2022/09/05 06:19:29;;;;;;;5.75;2.80;;;;;;;;;;4921571;29;20147;-86
2022/09/05 06:23:29;;;;;;;5.40;2.97;;;;;;;;;;4917697;29;20531;-86
2022/09/05 06:26:23;;;;;;;8.70;2.97;;;;;;;;;;4856982;29;20053;-85
2022/09/05 06:29:14;;;;;;;4.22;2.95;;;;;;;;;;4855121;29;20053;-94
2022/09/05 06:32:25;;;;;;;8.85;3.40;;;;;;;;;;4859809;29;20056;-94
2022/09/05 06:35:19;;;;;;;6.15;3.00;;;;;;;;;;4841314;29;20477;-94
2022/09/05 06:38:05;;;;;;;5.53;2.90;;;;;;;;;;4849367;29;20048;-86
2022/09/05 06:40:46;;;;;;;6.50;2.90;;;;;;;;;;4875615;29;20136;-87
2022/09/05 06:43:49;;;;;;;6.60;2.95;;;;;;;;;;4874893;29;20097;-86
2022/09/05 06:46:26;;;;;;;7.03;3.17;;;;;;;;;;4903517;29;20062;-85
2022/09/05 06:49:39;;;;;;;5.85;3.30;;;;;;;;;;4879165;29;20060;-90
2022/09/05 06:52:28;;;;;;;12.05;3.95;;;;;;;;;;4908423;29;20047;-90
2022/09/05 06:55:22;;;;;;;6.93;3.22;;;;;;;;;;4910437;29;20052;-91
2022/09/05 06:58:04;;;;;;;5.97;3.05;;;;;;;;;;4896020;29;20091;-91
2022/09/05 07:00:47;;;;;;;6.30;3.10;;;;;;;;;;4882962;28;20633;-90
2022/09/05 07:03:47;;;;;;;6.72;2.85;;;;;;;;;;5010839;28;20040;-90
2022/09/05 07:06:33;;;;;;;5.97;3.47;;;;;;;;;;5015305;28;20128;-90
2022/09/05 07:09:42;;;;;;;8.45;3.42;;;;;;;;;;5016544;28;20057;-86
2022/09/05 07:12:15;;;;;;;5.07;2.85;;;;;;;;;;5023000;28;20037;-86
2022/09/05 07:15:00;;;;;;;9.20;2.92;;;;;;;;;;5024506;28;20053;-86
2022/09/05 07:17:56;;;;;;;6.22;2.60;;;;;;;;;;5003407;28;20061;-86
2022/09/05 07:20:53;;;;;;;10.35;3.15;;;;;;;;;;5023456;28;20053;-86
2022/09/05 07:24:21;;;;;;;4.82;3.05;;;;;;;;;;5009204;28;20129;-86
2022/09/05 07:27:50;;;;;;;5.20;2.88;;;;;;;;;;4933892;29;20151;-87
2022/09/05 07:30:47;;;;;;;6.53;2.58;;;;;;;;;;4932257;29;20047;-87
2022/09/05 07:33:23;;;;;;;6.88;3.50;;;;;;;;;;4910888;29;20534;-87
2022/09/05 07:35:54;;;;;;;6.40;3.08;;;;;;;;;;4934428;29;20059;-87
2022/09/05 07:38:27;;;;;;;5.97;3.08;;;;;;;;;;4888260;29;20052;-95
2022/09/05 07:41:29;;;;;;;5.13;3.10;;;;;;;;;;4903948;29;20054;-95
2022/09/05 07:44:12;;;;;;;6.40;2.90;;;;;;;;;;4902263;29;20121;-95
2022/09/05 07:46:41;;;;;;;9.10;3.35;;;;;;;;;;4918150;29;20047;-94
2022/09/05 07:49:22;;;;;;;5.75;2.85;;;;;;;;;;4920942;29;20044;-88
2022/09/05 07:51:55;;;;;;;4.00;2.17;;;;;;;;;;4940084;29;20052;-87
2022/09/05 07:54:47;;;;;;;7.50;3.00;;;;;;;;;;4934510;29;20530;-88
2022/09/05 07:57:47;;;;;;;5.20;2.70;;;;;;;;;;4921910;29;20055;-88
2022/09/05 08:00:23;;;;;;;6.25;3.17;;;;;;;;;;4939222;29;20537;-88
2022/09/05 08:03:07;;;;;;;4.80;2.67;;;;;;;;;;4934966;28;20104;-88
2022/09/05 08:05:45;;;;;;;5.03;2.78;;;;;;;;;;5008265;28;20490;-90
2022/09/05 08:08:18;;;;;;;4.47;2.80;;;;;;;;;;5023186;28;20042;-89
2022/09/05 08:10:50;;;;;;;5.13;3.10;;;;;;;;;;4978377;28;20053;-88
2022/09/05 08:14:23;;;;;;;7.80;2.83;;;;;;;;;;5007397;28;20892;-87
2022/09/05 08:17:43;;;;;;;5.13;2.70;;;;;;;;;;5005528;28;20121;-87
2022/09/05 08:20:30;;;;;;;5.75;2.67;;;;;;;;;;5028250;28;20048;-95
2022/09/05 08:23:11;;;;;;;5.53;2.80;;;;;;;;;;4999479;28;20362;-95
2022/09/05 08:25:58;;;;;;;6.93;2.83;;;;;;;;;;4998350;28;20050;-95
2022/09/05 08:28:54;;;;;;;6.13;3.25;;;;;;;;;;4999661;28;20054;-88
2022/09/05 08:31:59;;;;;;;4.95;2.75;;;;;;;;;;4966321;28;20546;-96
2022/09/05 08:34:49;;;;;;;4.28;2.55;;;;;;;;;;4979923;28;20057;-96
2022/09/05 08:37:24;;;;;;;8.88;2.80;;;;;;;;;;5011438;28;20077;-96
2022/09/05 08:40:00;;;;;;;4.80;2.55;;;;;;;;;;5007605;28;20038;-96
2022/09/05 08:43:22;;;;;;;7.15;3.63;;;;;;;;;;5002803;28;20038;-96
2022/09/05 08:46:19;;;;;;;7.55;2.92;;;;;;;;;;4998049;28;20049;-95
2022/09/05 08:49:34;;;;;;;4.15;2.63;;;;;;;;;;5000477;28;20397;-88
2022/09/05 08:52:33;;;;;;;4.80;1.90;;;;;;;;;;5020847;28;20121;-88
2022/09/05 08:55:36;;;;;;;6.25;2.70;;;;;;;;;;5028849;28;20088;-87
2022/09/05 08:58:27;;;;;;;5.40;2.10;;;;;;;;;;5015769;28;20129;-88
2022/09/05 09:01:32;;;;;;;5.57;2.90;;;;;;;;;;4995204;28;20030;-96
2022/09/05 09:04:37;;;;;;;4.80;2.47;;;;;;;;;;4978213;28;20545;-96
2022/09/05 09:07:39;;;;;;;5.80;2.80;;;;;;;;;;4981876;28;20051;-96
2022/09/05 09:10:34;;;;;;;5.03;2.78;;;;;;;;;;4994668;28;20515;-96
2022/09/05 09:13:09;;;;;;;6.60;3.08;;;;;;;;;;4994377;28;20048;-96
2022/09/05 09:16:24;;;;;;;5.65;2.85;;;;;;;;;;4982570;28;20042;-96
2022/09/05 09:19:00;;;;;;;;;;;;;;;;;;4980856;28;20049;-96
2022/09/05 09:21:56;;;;;;;5.68;2.33;;;;;;;;;;4979520;28;20278;-96
2022/09/05 09:24:36;;;;;;;4.57;2.35;;;;;;;;;;4940797;29;20142;-96
2022/09/05 09:27:28;;;;;;;5.78;2.83;;;;;;;;;;4940088;29;20190;-96
2022/09/05 09:30:18;;;;;;;6.80;2.90;;;;;;;;;;4912555;29;20051;-96
2022/09/05 09:32:48;;;;;;;6.43;3.15;;;;;;;;;;4939127;29;20055;-96
2022/09/05 09:35:36;;;;;;;7.75;2.65;;;;;;;;;;4941968;29;20062;-96
2022/09/05 09:38:41;;;;;;;3.70;2.55;;;;;;;;;;4939154;29;20055;-88
2022/09/05 09:41:49;;;;;;;5.63;2.80;;;;;;;;;;4893759;29;20556;-88
2022/09/05 09:44:38;;;;;;;8.70;3.00;;;;;;;;;;4909587;29;20052;-88
2022/09/05 09:47:13;;;;;;;6.13;3.13;;;;;;;;;;4879241;29;20058;-88
2022/09/05 09:50:00;;;;;;;4.68;3.20;;;;;;;;;;4898641;29;20050;-96
2022/09/05 09:52:44;;;;;;;8.50;3.20;;;;;;;;;;4901340;29;20056;-96
2022/09/05 09:55:56;;;;;;;6.20;3.25;;;;;;;;;;4900065;29;20044;-96
2022/09/05 09:58:47;;;;;;;6.97;2.92;;;;;;;;;;4883231;29;20123;-88
2022/09/05 10:01:37;;;;;;;5.97;3.08;;;;;;;;;;4927040;29;20043;-96
2022/09/05 10:04:17;;;;;;;5.35;3.40;;;;;;;;;;4942923;29;20065;-96
2022/09/05 10:07:20;;;;;;;7.05;2.80;;;;;;;;;;4924768;29;20129;-96
2022/09/05 10:10:37;;;;;;;4.13;2.40;;;;;;;;;;4922994;29;20059;-96
2022/09/05 10:13:42;;;;;;;6.13;2.95;;;;;;;;;;4922838;29;20054;-96
2022/09/05 10:16:35;;;;;;;5.45;3.25;;;;;;;;;;4934070;28;20054;-96
2022/09/05 10:19:26;;;;;;;5.28;3.05;;;;;;;;;;4970109;28;20046;-88
2022/09/05 10:22:59;;;;;;;7.68;2.92;;;;;;;;;;5015309;28;20034;-88
2022/09/05 10:25:31;;;;;;;4.97;2.75;;;;;;;;;;5003319;28;20052;-88
2022/09/05 10:28:26;;;;;;;5.15;2.78;;;;;;;;;;5006344;28;20046;-88
2022/09/05 10:31:45;;;;;;;4.45;2.78;;;;;;;;;;5004898;28;20045;-88
2022/09/05 10:34:45;;;;;;;5.38;2.65;;;;;;;;;;5004157;28;20088;-89
2022/09/05 10:37:45;;;;;;;6.07;2.45;;;;;;;;;;5015127;28;20050;-88
2022/09/05 10:40:19;;;;;;;5.45;2.67;;;;;;;;;;5023787;28;20722;-89
2022/09/05 10:42:53;;;;;;;5.07;2.60;;;;;;;;;;5027244;28;20079;-89
2022/09/05 10:45:56;;;;;;;4.57;2.75;;;;;;;;;;5012723;28;20046;-89
2022/09/05 10:48:28;;;;;;;4.40;2.60;;;;;;;;;;5019081;28;20042;-89
2022/09/05 10:51:08;;;;;;;4.53;2.50;;;;;;;;;;5009290;28;20141;-89
2022/09/05 10:53:44;;;;;;;4.10;2.50;;;;;;;;;;5016500;28;20448;-89
2022/09/05 10:56:26;;;;;;;8.10;2.30;;;;;;;;;;5019437;28;20050;-89
2022/09/05 10:58:59;;;;;;;9.82;2.88;;;;;;;;;;5007814;28;20085;-89
2022/09/05 11:02:18;;;;;;;7.05;2.60;;;;;;;;;;5022812;28;20049;-88
2022/09/05 11:05:18;;;;;;;5.65;2.50;;;;;;;;;;5000562;28;20045;-88
2022/09/05 11:07:51;;;;;;;7.65;2.60;;;;;;;;;;5008821;28;20097;-88
2022/09/05 11:10:27;;;;;;;5.43;2.45;;;;;;;;;;5030481;28;20501;-96
2022/09/05 11:13:32;;;;;;;4.28;2.67;;;;;;;;;;5022118;28;20041;-96
2022/09/05 11:16:40;;;;;;;4.00;2.08;;;;;;;;;;5022202;28;20045;-96
2022/09/05 11:19:26;;;;;;;6.40;2.25;;;;;;;;;;4979434;28;20482;-91
2022/09/05 11:22:14;;;;;;;4.97;2.15;;;;;;;;;;4962305;28;20042;-90
2022/09/05 11:24:59;;;;;;;5.65;2.40;;;;;;;;;;4985725;28;20246;-91
2022/09/05 11:27:54;;;;;;;6.22;2.20;;;;;;;;;;4982944;28;20221;-91
2022/09/05 11:30:32;;;;;;;6.63;2.10;;;;;;;;;;5002414;28;20042;-91
2022/09/05 11:33:26;;;;;;;3.67;2.15;;;;;;;;;;4980648;28;20070;-91
2022/09/05 11:36:34;;;;;;;4.10;2.40;;;;;;;;;;4992374;28;20132;-90
2022/09/05 11:39:53;;;;;;;5.70;2.47;;;;;;;;;;4997597;28;20058;-90
2022/09/05 11:43:38;;;;;;;4.47;2.67;;;;;;;;;;4999468;28;20066;-90
2022/09/05 11:46:40;;;;;;;5.25;2.40;;;;;;;;;;4978243;28;20118;-90
2022/09/05 11:50:02;;;;;;;5.65;2.20;;;;;;;;;;4991863;28;20496;-96
2022/09/05 11:53:29;;;;;;;4.63;2.60;;;;;;;;;;4998196;28;20086;-96
2022/09/05 11:59:41;;;;;;;4.22;2.40;;;;;;;;;;4982625;28;20049;-90
2022/09/05 12:02:52;;;;;;;5.10;2.20;;;;;;;;;;4977029;28;20409;-89
2022/09/05 12:05:58;;;;;;;4.90;2.20;;;;;;;;;;5012608;28;20042;-91
2022/09/05 12:08:51;;;;;;;5.28;2.38;;;;;;;;;;4975472;28;20522;-90
2022/09/05 12:11:50;;;;;;;3.88;2.30;;;;;;;;;;4993467;28;20084;-90
2022/09/05 12:14:27;;;;;;;7.10;2.50;;;;;;;;;;4991348;28;20042;-90
2022/09/05 12:17:03;;;;;;;4.47;2.55;;;;;;;;;;4979877;28;20045;-90
2022/09/05 12:19:50;;;;;;;5.95;2.58;;;;;;;;;;4983043;28;20064;-96
2022/09/05 12:22:36;;;;;;;4.10;2.15;;;;;;;;;;4993849;28;20137;-96
2022/09/05 12:25:36;;;;;;;5.20;2.30;;;;;;;;;;5010207;28;20050;-96
2022/09/05 12:28:38;;;;;;;4.70;2.35;;;;;;;;;;5022907;28;20061;-96
2022/09/05 12:31:40;;;;;;;6.40;2.13;;;;;;;;;;5019922;28;20041;-90
2022/09/05 12:34:56;;;;;;;4.20;2.50;;;;;;;;;;5012102;28;21577;-90
2022/09/05 12:38:01;;;;;;;4.30;2.28;;;;;;;;;;5015515;28;20571;-90
2022/09/05 12:41:13;;;;;;;6.50;2.42;;;;;;;;;;5017275;28;20449;-90
2022/09/05 12:44:21;;;;;;;6.63;2.17;;;;;;;;;;5014939;28;20144;-90
2022/09/05 12:47:17;;;;;;;5.50;2.13;;;;;;;;;;4996530;28;20077;-90
2022/09/05 12:50:05;;;;;;;4.30;2.05;;;;;;;;;;4999768;28;20112;-90
2022/09/05 12:53:14;;;;;;;3.70;2.30;;;;;;;;;;5025182;28;20088;-90
2022/09/05 12:56:38;;;;;;;3.92;2.28;;;;;;;;;;5028047;28;20066;-90
2022/09/05 12:59:34;;;;;;;6.72;2.67;;;;;;;;;;5032115;28;20041;-96
2022/09/05 13:02:28;;;;;;;3.97;2.25;;;;;;;;;;4992223;28;20065;-96
2022/09/05 13:05:25;;;;;;;3.85;2.03;;;;;;;;;;4991753;28;20052;-96
2022/09/05 13:07:57;;;;;;;4.68;2.60;;;;;;;;;;5005249;28;20140;-96
2022/09/05 13:10:39;;;;;;;5.55;2.30;;;;;;;;;;5012825;28;20445;-90
2022/09/05 13:14:04;;;;;;;3.67;2.20;;;;;;;;;;5000354;28;20125;-90
2022/09/05 13:17:00;;;;;;;4.53;2.10;;;;;;;;;;4921101;29;20054;-90
2022/09/05 13:19:42;;;;;;;3.78;2.25;;;;;;;;;;4921677;29;20084;-90
2022/09/05 13:22:15;;;;;;;3.63;2.10;;;;;;;;;;4929605;29;20071;-90
2022/09/05 13:25:03;;;;;;;4.20;2.22;;;;;;;;;;4916006;29;20123;-90
2022/09/05 13:27:39;;;;;;;7.57;2.63;;;;;;;;;;4932392;29;20056;-90
2022/09/05 13:30:14;;;;;;;4.20;2.40;;;;;;;;;;4942502;29;20048;-96
2022/09/05 13:33:24;;;;;;;4.75;2.20;;;;;;;;;;4915898;29;20587;-96
2022/09/05 13:36:23;;;;;;;6.25;2.30;;;;;;;;;;4931983;29;20055;-96
2022/09/05 13:39:13;;;;;;;6.15;2.65;;;;;;;;;;4915121;29;20099;-96
2022/09/05 13:42:00;;;;;;;5.03;2.33;;;;;;;;;;4883156;29;20107;-96
2022/09/05 13:44:45;;;;;;;4.03;2.10;;;;;;;;;;4882638;29;20044;-96
2022/09/05 13:47:35;;;;;;;7.35;2.50;;;;;;;;;;4882844;29;20052;-96
2022/09/05 13:50:10;;;;;;;6.15;2.50;;;;;;;;;;4916182;29;20044;-90
2022/09/05 13:53:04;;;;;;;4.65;2.47;;;;;;;;;;4940064;28;20057;-90
2022/09/05 13:56:22;;;;;;;3.97;2.20;;;;;;;;;;4897552;29;20048;-90
2022/09/05 13:59:00;;;;;;;4.05;2.40;;;;;;;;;;4938267;29;20051;-90
2022/09/05 14:01:36;;;;;;;5.40;2.30;;;;;;;;;;4926134;29;20098;-90
2022/09/05 14:04:28;;;;;;;4.63;2.35;;;;;;;;;;4937363;29;20079;-90
2022/09/05 14:07:27;;;;;;;4.03;2.58;;;;;;;;;;4923251;29;20062;-89
2022/09/05 14:10:43;;;;;;;4.68;2.88;;;;;;;;;;4914154;29;20131;-90
2022/09/05 14:13:46;;;;;;;5.15;2.40;;;;;;;;;;4932914;28;20072;-90
2022/09/05 14:16:25;;;;;;;5.72;2.40;;;;;;;;;;4932158;29;20051;-90
2022/09/05 14:21:43;;;;;;;4.05;2.42;;;;;;;;;;4928859;29;20047;-90
2022/09/05 14:24:15;;;;;;;5.40;2.20;;;;;;;;;;4901311;29;20051;-90
2022/09/05 14:27:19;;;;;;;4.63;2.17;;;;;;;;;;4923748;29;20114;-90
2022/09/05 14:30:02;;;;;;;5.78;2.83;;;;;;;;;;4916522;29;20048;-96
2022/09/05 14:33:19;;;;;;;5.13;2.50;;;;;;;;;;4961883;28;20061;-96
2022/09/05 14:37:00;;;;;;;4.32;2.58;;;;;;;;;;4968108;29;20054;-96
2022/09/05 14:40:35;;;;;;;5.07;2.50;;;;;;;;;;4947510;29;20174;-96
2022/09/05 14:43:43;;;;;;;6.65;2.38;;;;;;;;;;4902988;29;20157;-96
2022/09/05 14:47:18;;;;;;;5.88;2.17;;;;;;;;;;4933745;29;20043;-96
2022/09/05 14:50:26;;;;;;;3.58;2.38;;;;;;;;;;4919171;29;20488;-96
2022/09/05 14:53:04;;;;;;;5.85;2.40;;;;;;;;;;4918001;29;20048;-96
2022/09/05 14:56:03;;;;;;;5.30;2.55;;;;;;;;;;4919693;29;20047;-96
2022/09/05 14:59:29;;;;;;;5.15;2.50;;;;;;;;;;4926437;29;20052;-96
2022/09/05 15:07:20;;;;;;;5.22;2.50;;;;;;;;;;4952831;29;20039;-96
2022/09/05 15:14:02;;;;;;;8.40;2.45;;;;;;;;;;4914226;29;20052;-96
2022/09/05 15:17:02;;;;;;;4.15;2.17;;;;;;;;;;4909725;29;20129;-96
2022/09/05 15:19:57;;;;;;;3.33;2.10;;;;;;;;;;4884101;29;20040;-90
2022/09/05 15:22:40;;;;;;;4.53;2.40;;;;;;;;;;4891893;29;20652;-90
2022/09/05 15:25:16;;;;;;;5.50;2.47;;;;;;;;;;4892274;29;20132;-90
2022/09/05 15:27:49;;;;;;;3.58;2.20;;;;;;;;;;4897953;29;20486;-90
2022/09/05 15:30:27;;;;;;;4.82;2.30;;;;;;;;;;4904528;29;20059;-92
2022/09/05 15:33:22;;;;;;;5.00;2.40;;;;;;;;;;4910834;29;20045;-96
2022/09/05 15:35:59;;;;;;;4.97;2.30;;;;;;;;;;4899516;29;20049;-96
2022/09/05 15:38:34;;;;;;;7.22;2.45;;;;;;;;;;4914812;29;22352;-96
2022/09/05 15:41:33;;;;;;;3.47;2.30;;;;;;;;;;4935517;29;20038;-96
2022/09/05 15:44:24;;;;;;;4.18;2.40;;;;;;;;;;4979097;28;20062;-96
2022/09/05 15:47:28;;;;;;;6.32;2.50;;;;;;;;;;5021062;28;20045;-96
2022/09/05 15:49:58;;;;;;;3.83;2.13;;;;;;;;;;5010167;28;20048;-89
2022/09/05 15:52:39;;;;;;;6.13;2.60;;;;;;;;;;5018858;28;20046;-90
2022/09/05 15:55:18;;;;;;;3.88;2.25;;;;;;;;;;4997363;28;20133;-90
2022/09/05 15:58:04;;;;;;;6.93;2.60;;;;;;;;;;5029660;28;20092;-90
2022/09/05 16:00:41;;;;;;;3.83;2.20;;;;;;;;;;5013459;28;20041;-89
2022/09/05 16:03:18;;;;;;;5.75;2.80;;;;;;;;;;5036976;28;20030;-89
2022/09/05 16:06:12;;;;;;;6.32;2.30;;;;;;;;;;5014184;28;20065;-89
2022/09/05 16:09:27;;;;;;;6.80;2.50;;;;;;;;;;5015975;28;20116;-89
2022/09/05 16:12:39;;;;;;;3.97;2.25;;;;;;;;;;5021740;28;20471;-89
2022/09/05 16:15:29;;;;;;;6.00;2.60;;;;;;;;;;5016814;28;20108;-89
2022/09/05 16:18:26;;;;;;;6.82;2.45;;;;;;;;;;4988064;28;20450;-96
2022/09/05 16:21:21;;;;;;;4.07;2.00;;;;;;;;;;4999938;28;20115;-96
2022/09/05 16:24:38;;;;;;;5.57;2.40;;;;;;;;;;4998540;28;20042;-96
2022/09/05 16:27:43;;;;;;;3.65;2.50;;;;;;;;;;4985636;28;20391;-96
2022/09/05 16:30:19;;;;;;;5.35;2.28;;;;;;;;;;5014352;28;20034;-96
2022/09/05 16:32:49;;;;;;;5.05;2.40;;;;;;;;;;5035638;23;20068;-95
2022/09/05 16:35:18;;;;;;;6.15;2.45;;;;;;;;;;5026095;28;20079;-95
2022/09/05 16:38:25;;;;;;;4.70;2.00;;;;;;;;;;5026507;28;20045;-96
2022/09/05 16:41:44;;;;;;;4.32;2.08;;;;;;;;;;5028820;28;20043;-96
2022/09/05 16:44:19;;;;;;;;;;;;;;;;;;5026269;28;20033;-96
2022/09/05 16:46:59;;;;;;;5.10;2.55;;;;;;;;;;5042004;28;20369;-96
2022/09/05 16:52:49;;;;;;;9.20;2.50;;;;;;;;;;5058287;28;20439;-95
2022/09/05 16:55:42;;;;;;;7.65;2.35;;;;;;;;;;5025818;28;20501;-95
2022/09/05 16:58:19;;;;;;;3.85;2.20;;;;;;;;;;5042440;28;20045;-90
2022/09/05 17:00:54;;;;;;;3.95;2.28;;;;;;;;;;5044279;28;20071;-90
2022/09/05 17:03:39;;;;;;;4.07;2.10;;;;;;;;;;5037805;28;20397;-90
2022/09/05 17:06:20;;;;;;;3.88;2.30;;;;;;;;;;5053934;28;20153;-90
2022/09/05 17:08:59;;;;;;;5.57;2.55;;;;;;;;;;5039531;28;20103;-90
2022/09/05 17:11:41;;;;;;;3.58;2.13;;;;;;;;;;5050495;28;20040;-91
2022/09/05 17:14:38;;;;;;;5.22;2.35;;;;;;;;;;5039841;28;20045;-90
2022/09/05 17:17:14;;;;;;;5.35;2.25;;;;;;;;;;5057420;28;20090;-91
2022/09/05 17:20:13;;;;;;;3.42;2.20;;;;;;;;;;5042301;28;20405;-91
2022/09/05 17:22:52;;;;;;;3.78;2.13;;;;;;;;;;5022686;28;20501;-90
2022/09/05 17:26:05;;;;;;;3.55;2.17;;;;;;;;;;5055249;28;20064;-90
2022/09/05 17:29:40;;;;;;;6.28;2.50;;;;;;;;;;5044557;28;20119;-90
2022/09/05 17:32:33;;;;;;;3.90;2.08;;;;;;;;;;5024793;28;20147;-90
2022/09/05 17:35:20;;;;;;;4.25;2.47;;;;;;;;;;5019592;28;20045;-91
2022/09/05 17:38:04;;;;;;;5.30;2.10;;;;;;;;;;5055537;28;20029;-91
2022/09/05 17:41:09;;;;;;;4.20;2.30;;;;;;;;;;5055405;28;20045;-91
2022/09/05 17:43:41;;;;;;;3.97;2.20;;;;;;;;;;5070118;28;20040;-90
2022/09/05 17:46:33;;;;;;;5.13;2.58;;;;;;;;;;5038483;28;20037;-91
2022/09/05 17:49:41;;;;;;;4.10;2.47;;;;;;;;;;5041226;28;20041;-91
2022/09/05 17:52:16;;;;;;;5.75;2.28;;;;;;;;;;5039195;28;20596;-90
2022/09/05 17:54:51;;;;;;;4.13;1.90;;;;;;;;;;5051875;28;20059;-90